Inicio METAR Ruta Wind Satelite

Informe Meteorológico

Fecha: 2024/06/18 19:01:55 Local
2024.06.19 00:01 UTC


Operación:VFR
SKCC 182300Z 07005KT 9999 SCT017 SCT070 29/22 Q1008 =

SKCC 182300Z 07005KT 9999 SCT017 SCT070 29/22 Q1008
SKCC 182200Z 19012KT 9999 SCT017 SCT070 32/19 Q1008
SKCC 182100Z VRB05KT 9999 SCT017 SCT070 33/21 Q1007
SKCC 182000Z 05008KT 9999 SCT018 SCT070 34/21 Q1008
SKCC 181900Z 36007KT 9999 SCT018 34/21 Q1008

2024/06/18 18:42
TAF SKCC 181630Z 1818/1918 36010KT 9999 SCT020
TEMPO 1821/1824 VCTS SCT018CB
BECMG 1904/1906 VRB02KT TX35/1819Z TN24/1910Z